createdAt,value
2019-04-04T00:00:58.062Z,8.97
2019-04-04T00:03:28.906Z,8.10
2019-04-04T00:05:58.910Z,10.70
2019-04-04T00:08:30.872Z,10.00
2019-04-04T00:11:00.195Z,10.30
2019-04-04T00:13:29.955Z,10.00
2019-04-04T00:15:59.400Z,14.83
2019-04-04T00:18:29.290Z,9.63
2019-04-04T00:20:58.917Z,9.17
2019-04-04T00:23:28.712Z,9.80
2019-04-04T00:25:58.174Z,10.70
2019-04-04T00:28:27.701Z,10.17
2019-04-04T00:30:57.248Z,10.33
2019-04-04T00:33:27.045Z,10.10
2019-04-04T00:35:56.488Z,11.03
2019-04-04T00:38:25.997Z,10.40
2019-04-04T00:40:55.957Z,9.30
2019-04-04T00:43:25.855Z,9.67
2019-04-04T00:45:55.478Z,9.83
2019-04-04T00:48:25.394Z,10.47
2019-04-04T00:50:54.944Z,12.47
2019-04-04T00:53:24.613Z,12.73
2019-04-04T00:55:54.513Z,12.17
2019-04-04T00:58:24.007Z,9.77
2019-04-04T01:00:54.864Z,11.60
2019-04-04T01:03:24.980Z,12.47
2019-04-04T01:05:54.883Z,10.87
2019-04-04T01:08:24.497Z,9.97
2019-04-04T01:10:54.302Z,10.67
2019-04-04T01:13:27.261Z,13.70
2019-04-04T01:15:55.883Z,10.90
2019-04-04T01:18:25.672Z,12.20
2019-04-04T01:20:55.396Z,12.57
2019-04-04T01:23:27.186Z,11.23
2019-04-04T01:25:56.690Z,13.33
2019-04-04T01:28:26.246Z,10.67
2019-04-04T01:30:55.781Z,11.13
2019-04-04T01:33:25.556Z,9.93
2019-04-04T01:35:55.108Z,11.33
2019-04-04T01:38:24.798Z,12.43
2019-04-04T01:40:55.157Z,10.53
2019-04-04T01:43:25.058Z,8.10
2019-04-04T01:45:54.763Z,11.07
2019-04-04T01:48:24.589Z,11.37
2019-04-04T01:50:54.363Z,15.40
2019-04-04T01:53:24.033Z,8.70
2019-04-04T01:55:53.587Z,10.30
2019-04-04T01:58:23.030Z,8.00
2019-04-04T02:00:52.885Z,9.07
2019-04-04T02:03:23.282Z,9.30
2019-04-04T02:05:52.715Z,9.37
2019-04-04T02:08:22.206Z,11.20
2019-04-04T02:10:51.850Z,12.23
2019-04-04T02:13:21.581Z,9.97
2019-04-04T02:15:51.063Z,9.17
2019-04-04T02:18:23.304Z,9.63
2019-04-04T02:20:51.685Z,8.37
2019-04-04T02:23:21.362Z,11.10
2019-04-04T02:25:51.102Z,8.87
2019-04-04T02:28:20.841Z,8.07
2019-04-04T02:30:50.271Z,12.70
2019-04-04T02:33:19.769Z,11.40
2019-04-04T02:35:49.272Z,13.10
2019-04-04T02:38:18.960Z,10.63
2019-04-04T02:40:48.333Z,7.27
2019-04-04T02:43:18.049Z,10.67
2019-04-04T02:45:47.531Z,7.73
2019-04-04T02:48:17.005Z,12.23
2019-04-04T02:50:46.447Z,13.90
2019-04-04T02:53:19.441Z,8.63
2019-04-04T02:55:47.236Z,11.33
2019-04-04T02:58:16.860Z,9.97
2019-04-04T03:00:47.756Z,8.87
2019-04-04T03:03:17.277Z,8.77
2019-04-04T03:05:50.755Z,9.73
2019-04-04T03:08:18.427Z,7.27
2019-04-04T03:10:49.390Z,11.63
2019-04-04T03:13:19.122Z,14.73
2019-04-04T03:15:48.805Z,13.93
2019-04-04T03:18:18.528Z,11.30
2019-04-04T03:20:50.395Z,12.57
2019-04-04T03:23:19.492Z,8.23
2019-04-04T03:25:49.204Z,8.93
2019-04-04T03:28:18.905Z,10.57
2019-04-04T03:30:58.083Z,9.27
2019-04-04T03:33:19.878Z,10.27
2019-04-04T03:35:49.336Z,15.20
2019-04-04T03:38:18.958Z,10.47
2019-04-04T03:40:48.348Z,9.20
2019-04-04T03:43:17.786Z,8.93
2019-04-04T03:45:47.408Z,9.20
2019-04-04T03:48:18.588Z,8.77
2019-04-04T03:50:48.523Z,13.30
2019-04-04T03:53:19.863Z,11.60
2019-04-04T03:55:49.547Z,16.63
2019-04-04T03:58:19.384Z,15.70
2019-04-04T04:00:48.918Z,15.70
2019-04-04T04:03:22.231Z,13.07
2019-04-04T04:05:50.159Z,12.03
2019-04-04T04:08:21.949Z,11.80
2019-04-04T04:10:51.100Z,10.27
2019-04-04T04:13:20.939Z,10.70
2019-04-04T04:15:50.641Z,10.33
2019-04-04T04:18:21.560Z,11.27
2019-04-04T04:20:51.467Z,17.27
2019-04-04T04:23:23.949Z,13.03
2019-04-04T04:25:53.000Z,16.70
2019-04-04T04:28:22.644Z,18.40
2019-04-04T04:30:52.045Z,17.20
2019-04-04T04:33:21.782Z,12.97
2019-04-04T04:35:51.554Z,14.03
2019-04-04T04:38:25.592Z,66.10
2019-04-04T04:40:52.230Z,121.07
2019-04-04T04:43:21.994Z,141.57
2019-04-04T04:45:51.774Z,118.20
2019-04-04T04:48:21.344Z,74.37
2019-04-04T04:50:50.792Z,48.90
2019-04-04T04:53:20.558Z,37.47
2019-04-04T04:55:49.949Z,25.93
2019-04-04T04:58:19.672Z,21.37
2019-04-04T05:00:49.415Z,18.07
2019-04-04T05:03:18.968Z,14.43
2019-04-04T05:05:48.695Z,15.03
2019-04-04T05:08:18.136Z,62.57
2019-04-04T05:10:47.759Z,20.73
2019-04-04T05:13:17.200Z,15.70
2019-04-04T05:15:46.955Z,10.37
2019-04-04T05:18:17.083Z,13.90
2019-04-04T05:20:46.601Z,13.17
2019-04-04T05:23:16.394Z,13.60
2019-04-04T05:25:53.686Z,17.07
2019-04-04T05:28:17.384Z,12.30
2019-04-04T05:30:47.839Z,16.03
2019-04-04T05:33:17.354Z,15.30
2019-04-04T05:35:47.059Z,46.47
2019-04-04T05:38:16.752Z,40.43
2019-04-04T05:40:46.494Z,23.90
2019-04-04T05:43:15.922Z,22.23
2019-04-04T05:45:45.989Z,13.07
2019-04-04T05:48:15.794Z,12.37
2019-04-04T05:50:45.335Z,8.30
2019-04-04T05:53:14.873Z,7.43
2019-04-04T05:55:44.733Z,9.20
2019-04-04T05:58:14.430Z,7.67
2019-04-04T06:00:46.136Z,8.07
2019-04-04T06:03:15.944Z,7.47
2019-04-04T06:05:45.841Z,9.97
2019-04-04T06:08:15.424Z,10.23
2019-04-04T06:10:45.031Z,10.77
2019-04-04T06:13:14.776Z,9.47
2019-04-04T06:15:44.333Z,10.73
2019-04-04T06:18:13.957Z,8.90
2019-04-04T06:20:43.721Z,10.40
2019-04-04T06:23:13.460Z,10.50
2019-04-04T06:25:43.347Z,11.53
2019-04-04T06:28:13.158Z,7.77
2019-04-04T06:30:43.890Z,14.33
2019-04-04T06:33:13.737Z,12.07
2019-04-04T06:35:43.137Z,11.73
2019-04-04T06:38:12.709Z,7.07
2019-04-04T06:40:42.661Z,11.00
2019-04-04T06:43:12.767Z,8.73
2019-04-04T06:45:42.370Z,8.67
2019-04-04T06:48:12.246Z,16.00
2019-04-04T06:50:43.147Z,11.90
2019-04-04T06:53:13.800Z,8.93
2019-04-04T06:55:43.484Z,7.97
2019-04-04T06:58:13.044Z,9.57
2019-04-04T07:00:42.881Z,9.23
2019-04-04T07:03:12.609Z,8.60
2019-04-04T07:05:42.141Z,9.57
2019-04-04T07:08:14.832Z,11.60
2019-04-04T07:10:43.461Z,11.07
2019-04-04T07:13:21.566Z,11.00
2019-04-04T07:15:48.336Z,18.90
2019-04-04T07:18:15.881Z,10.87
2019-04-04T07:20:48.250Z,9.53
2019-04-04T07:23:17.947Z,9.47
2019-04-04T07:25:47.429Z,9.13
2019-04-04T07:28:18.990Z,15.63
2019-04-04T07:30:48.586Z,9.80
2019-04-04T07:33:21.139Z,7.67
2019-04-04T07:35:49.701Z,8.87
2019-04-04T07:38:19.439Z,12.07
2019-04-04T07:40:49.208Z,9.07
2019-04-04T07:43:19.272Z,10.33
2019-04-04T07:45:49.677Z,11.73
2019-04-04T07:48:19.749Z,9.17
2019-04-04T07:50:51.439Z,10.80
2019-04-04T07:53:20.938Z,9.37
2019-04-04T07:55:50.510Z,11.10
2019-04-04T07:58:20.008Z,9.27
2019-04-04T08:00:49.843Z,11.50
2019-04-04T08:03:19.480Z,9.13
2019-04-04T08:05:48.875Z,10.33
2019-04-04T08:08:18.562Z,7.20
2019-04-04T08:10:48.258Z,10.37
2019-04-04T08:13:18.412Z,9.67
2019-04-04T08:15:47.913Z,10.87
2019-04-04T08:18:17.626Z,7.63
2019-04-04T08:20:47.236Z,13.40
2019-04-04T08:23:17.069Z,8.07
2019-04-04T08:25:46.833Z,10.47
2019-04-04T08:28:16.432Z,10.27
2019-04-04T08:30:46.029Z,7.27
2019-04-04T08:33:15.719Z,8.40
2019-04-04T08:35:45.206Z,10.70
2019-04-04T08:38:14.787Z,7.97
2019-04-04T08:40:46.204Z,12.27
2019-04-04T08:43:15.720Z,16.87
2019-04-04T08:45:45.440Z,8.67
2019-04-04T08:48:15.018Z,7.60
2019-04-04T08:50:44.516Z,7.80
2019-04-04T08:53:14.126Z,9.58
2019-04-04T08:55:43.554Z,9.28
2019-04-04T08:58:13.261Z,11.97
2019-04-04T09:00:43.120Z,10.00
2019-04-04T09:03:12.772Z,12.70
2019-04-04T09:05:42.371Z,12.78
2019-04-04T09:08:12.156Z,19.77
2019-04-04T09:10:42.008Z,10.08
2019-04-04T09:13:11.640Z,13.38
2019-04-04T09:15:41.347Z,28.80
2019-04-04T09:18:10.853Z,25.48
2019-04-04T09:20:40.647Z,11.50
2019-04-04T09:23:10.214Z,12.28
2019-04-04T09:25:40.993Z,9.83
2019-04-04T09:28:10.708Z,9.20
2019-04-04T09:30:40.477Z,8.15
2019-04-04T09:33:10.066Z,8.70
2019-04-04T09:35:40.044Z,8.30
2019-04-04T09:38:09.941Z,10.72
2019-04-04T09:40:39.483Z,9.70
2019-04-04T09:43:09.037Z,7.97
2019-04-04T09:45:38.729Z,8.85
2019-04-04T09:48:08.304Z,7.12
2019-04-04T09:50:38.069Z,7.15
2019-04-04T09:53:07.603Z,7.72
2019-04-04T09:55:37.259Z,8.90
2019-04-04T09:58:06.756Z,7.45
2019-04-04T10:00:36.712Z,6.53
2019-04-04T10:03:06.092Z,8.30
2019-04-04T10:05:36.158Z,10.30
2019-04-04T10:08:05.647Z,9.40
2019-04-04T10:10:35.079Z,8.45
2019-04-04T10:13:04.960Z,7.60
2019-04-04T10:15:34.784Z,7.70
2019-04-04T10:18:04.141Z,8.73
2019-04-04T10:20:33.841Z,12.65
2019-04-04T10:23:03.729Z,8.85
2019-04-04T10:25:33.248Z,8.73
2019-04-04T10:28:02.868Z,9.68
2019-04-04T10:30:32.570Z,8.35
2019-04-04T10:33:02.273Z,9.30
2019-04-04T10:35:32.112Z,10.10
2019-04-04T10:38:01.497Z,8.08
2019-04-04T10:40:30.985Z,8.13
2019-04-04T10:43:00.465Z,9.08
2019-04-04T10:45:29.951Z,7.75
2019-04-04T10:47:59.393Z,7.37
2019-04-04T10:50:29.300Z,8.13
2019-04-04T10:52:58.690Z,10.48
2019-04-04T10:55:28.399Z,9.10
2019-04-04T10:57:57.888Z,7.58
2019-04-04T11:00:27.484Z,10.08
2019-04-04T11:02:57.154Z,7.42
2019-04-04T11:05:26.653Z,8.53
2019-04-04T11:07:56.881Z,8.60
2019-04-04T11:10:26.608Z,10.03
2019-04-04T11:12:56.035Z,7.85
2019-04-04T11:15:25.434Z,7.85
2019-04-04T11:17:54.948Z,8.70
2019-04-04T11:20:24.894Z,7.03
2019-04-04T11:22:54.415Z,7.50
2019-04-04T11:25:24.235Z,6.90
2019-04-04T11:27:53.979Z,8.63
2019-04-04T11:30:23.405Z,7.03
2019-04-04T11:32:52.893Z,9.75
2019-04-04T11:35:22.377Z,9.68
2019-04-04T11:37:51.857Z,8.33
2019-04-04T11:40:21.563Z,11.50
2019-04-04T11:42:51.244Z,7.15
2019-04-04T11:45:20.832Z,9.90
2019-04-04T11:47:50.263Z,11.43
2019-04-04T11:50:19.983Z,9.75
2019-04-04T11:52:49.867Z,10.23
2019-04-04T11:55:19.360Z,10.57
2019-04-04T11:57:49.015Z,8.13
2019-04-04T12:00:24.990Z,10.38
2019-04-04T12:02:54.467Z,9.75
2019-04-04T12:05:24.004Z,13.30
2019-04-04T12:07:53.582Z,14.13
2019-04-04T12:10:23.215Z,10.97
2019-04-04T12:12:52.677Z,8.70
2019-04-04T12:15:22.298Z,8.43
2019-04-04T12:17:51.827Z,14.10
2019-04-04T12:20:21.621Z,9.90
2019-04-04T12:22:51.024Z,9.00
2019-04-04T12:25:20.598Z,12.87
2019-04-04T12:27:50.203Z,9.07
2019-04-04T12:30:20.835Z,11.50
2019-04-04T12:32:50.349Z,10.67
2019-04-04T12:35:19.741Z,9.23
2019-04-04T12:37:49.226Z,9.13
2019-04-04T12:40:20.906Z,9.30
2019-04-04T12:42:50.507Z,9.97
2019-04-04T12:45:20.031Z,7.90
2019-04-04T12:47:49.866Z,7.93
2019-04-04T12:50:19.635Z,9.33
2019-04-04T12:52:49.509Z,9.03
2019-04-04T12:55:19.349Z,9.00
2019-04-04T12:57:49.101Z,10.80
2019-04-04T13:00:19.014Z,11.30
2019-04-04T13:02:48.541Z,11.07
2019-04-04T13:05:18.044Z,10.23
2019-04-04T13:07:47.440Z,12.60
2019-04-04T13:10:17.079Z,10.80
2019-04-04T13:12:46.953Z,8.10
2019-04-04T13:15:18.136Z,8.80
2019-04-04T13:17:47.833Z,10.37
2019-04-04T13:20:17.622Z,8.80
2019-04-04T13:22:47.479Z,9.87
2019-04-04T13:25:17.064Z,8.03
2019-04-04T13:27:46.532Z,8.03
2019-04-04T13:30:16.478Z,9.63
2019-04-04T13:32:46.166Z,10.13
2019-04-04T13:35:15.757Z,17.17
2019-04-04T13:37:45.410Z,13.57
2019-04-04T13:40:15.023Z,11.43
2019-04-04T13:42:44.624Z,9.53
2019-04-04T13:45:15.102Z,9.43
2019-04-04T13:47:44.827Z,12.97
2019-04-04T13:50:14.921Z,8.73
2019-04-04T13:52:44.440Z,13.43
2019-04-04T13:55:14.048Z,9.47
2019-04-04T13:57:45.382Z,10.43
2019-04-04T14:00:15.678Z,12.00
2019-04-04T14:02:45.215Z,12.47
2019-04-04T14:05:15.126Z,11.23
2019-04-04T14:07:44.614Z,7.67
2019-04-04T14:10:16.902Z,7.40
2019-04-04T14:12:46.179Z,6.73
2019-04-04T14:15:16.204Z,12.70
2019-04-04T14:17:45.865Z,10.77
2019-04-04T14:20:16.478Z,8.13
2019-04-04T14:22:47.715Z,9.97
2019-04-04T14:25:17.327Z,7.57
2019-04-04T14:27:46.709Z,8.83
2019-04-04T14:30:16.834Z,11.87
2019-04-04T14:32:46.310Z,7.90
2019-04-04T14:35:16.218Z,9.73
2019-04-04T14:37:45.615Z,13.77
2019-04-04T14:40:15.358Z,9.90
2019-04-04T14:42:45.093Z,7.77
2019-04-04T14:45:15.045Z,8.53
2019-04-04T14:47:44.696Z,6.87
2019-04-04T14:50:14.702Z,7.43
2019-04-04T14:52:44.489Z,9.53
2019-04-04T14:55:14.162Z,8.40
2019-04-04T14:57:43.753Z,7.80
2019-04-04T15:00:15.869Z,6.30
2019-04-04T15:02:45.717Z,6.43
2019-04-04T15:05:15.420Z,9.80
2019-04-04T15:07:45.130Z,8.50
2019-04-04T15:10:15.071Z,13.87
2019-04-04T15:12:44.923Z,11.70
2019-04-04T15:15:14.884Z,11.93
2019-04-04T15:17:44.476Z,18.23
2019-04-04T15:20:13.995Z,16.60
2019-04-04T15:22:43.498Z,11.90
2019-04-04T15:25:13.331Z,10.13
2019-04-04T15:27:42.967Z,8.87
2019-04-04T15:30:12.848Z,13.30
2019-04-04T15:32:42.290Z,15.43
2019-04-04T15:35:12.139Z,14.80
2019-04-04T15:37:41.907Z,27.43
2019-04-04T15:40:12.081Z,29.10
2019-04-04T15:42:41.667Z,10.57
2019-04-04T15:45:11.741Z,34.97
2019-04-04T15:47:41.515Z,18.20
2019-04-04T15:50:11.353Z,104.90
2019-04-04T15:52:41.107Z,319.33
2019-04-04T15:55:11.220Z,55.90
2019-04-04T15:57:41.029Z,99.10
2019-04-04T16:00:11.033Z,115.93
2019-04-04T16:02:40.591Z,52.77
2019-04-04T16:05:10.689Z,43.53
2019-04-04T16:07:40.413Z,24.97
2019-04-04T16:10:10.622Z,23.60
2019-04-04T16:12:40.106Z,11.43
2019-04-04T16:15:09.698Z,7.93
2019-04-04T16:17:39.079Z,10.73
2019-04-04T16:20:09.284Z,9.07
2019-04-04T16:22:39.041Z,14.23
2019-04-04T16:25:09.118Z,18.40
2019-04-04T16:27:38.803Z,17.53
2019-04-04T16:30:09.292Z,18.00
2019-04-04T16:32:39.105Z,14.93
2019-04-04T16:35:08.798Z,12.73
2019-04-04T16:37:38.182Z,17.30
2019-04-04T16:40:09.712Z,20.50
2019-04-04T16:42:39.766Z,15.03
2019-04-04T16:45:09.579Z,15.83
2019-04-04T16:47:39.206Z,24.30
2019-04-04T16:50:08.911Z,19.87
2019-04-04T16:52:38.310Z,18.03
2019-04-04T16:55:08.582Z,11.57
2019-04-04T16:57:38.166Z,10.07
2019-04-04T17:00:08.424Z,18.27
2019-04-04T17:02:37.963Z,16.40
2019-04-04T17:05:10.656Z,14.57
2019-04-04T17:07:39.228Z,20.77
2019-04-04T17:10:10.449Z,29.57
2019-04-04T17:12:39.906Z,29.47
2019-04-04T17:15:09.816Z,37.83
2019-04-04T17:17:39.334Z,45.20
2019-04-04T17:20:10.275Z,39.93
2019-04-04T17:22:39.883Z,36.97
2019-04-04T17:25:09.481Z,29.13
2019-04-04T17:27:39.224Z,31.53
2019-04-04T17:30:15.417Z,24.87
2019-04-04T17:32:47.937Z,20.33
2019-04-04T17:35:16.748Z,19.80
2019-04-04T17:37:46.886Z,15.97
2019-04-04T17:40:16.845Z,14.57
2019-04-04T17:42:46.399Z,15.30
2019-04-04T17:45:18.479Z,19.53
2019-04-04T17:47:48.789Z,15.13
2019-04-04T17:50:19.444Z,14.37
2019-04-04T17:52:49.553Z,16.13
2019-04-04T17:55:19.725Z,13.83
2019-04-04T17:57:49.175Z,13.00
2019-04-04T18:00:20.961Z,11.30
2019-04-04T18:02:50.911Z,11.30
2019-04-04T18:05:20.619Z,10.03
2019-04-04T18:07:50.174Z,10.50
2019-04-04T18:10:19.996Z,10.17
2019-04-04T18:12:49.708Z,14.07
2019-04-04T18:15:19.112Z,19.10
2019-04-04T18:17:48.622Z,22.67
2019-04-04T18:20:18.449Z,32.17
2019-04-04T18:22:48.020Z,46.97
2019-04-04T18:25:17.738Z,45.50
2019-04-04T18:27:47.483Z,53.60
2019-04-04T18:30:18.003Z,43.63
2019-04-04T18:32:47.581Z,27.37
2019-04-04T18:35:17.614Z,25.77
2019-04-04T18:37:48.237Z,22.33
2019-04-04T18:40:18.320Z,18.50
2019-04-04T18:42:53.532Z,24.03
2019-04-04T18:45:20.646Z,21.83
2019-04-04T18:47:50.179Z,25.93
2019-04-04T18:50:19.743Z,24.33
2019-04-04T18:52:49.485Z,17.50
2019-04-04T18:55:20.371Z,16.87
2019-04-04T18:57:50.064Z,16.97
2019-04-04T19:00:22.227Z,13.00
2019-04-04T19:02:52.219Z,16.70
2019-04-04T19:05:22.071Z,14.87
2019-04-04T19:07:51.615Z,13.20
2019-04-04T19:10:21.029Z,13.47
2019-04-04T19:12:50.514Z,11.13
2019-04-04T19:15:21.594Z,23.47
2019-04-04T19:17:51.203Z,16.83
2019-04-04T19:20:22.068Z,14.50
2019-04-04T19:22:51.555Z,12.93
2019-04-04T19:25:21.588Z,13.00
2019-04-04T19:27:51.123Z,10.37
2019-04-04T19:30:21.008Z,9.83
2019-04-04T19:32:50.395Z,13.13
2019-04-04T19:35:19.951Z,14.00
2019-04-04T19:37:59.575Z,11.73
2019-04-04T19:40:22.780Z,24.30
2019-04-04T19:42:52.447Z,40.60
2019-04-04T19:45:22.261Z,34.73
2019-04-04T19:47:53.241Z,34.30
2019-04-04T19:50:23.027Z,18.00
2019-04-04T19:52:52.715Z,14.93
2019-04-04T19:55:22.438Z,10.60
2019-04-04T19:57:52.583Z,10.57
2019-04-04T20:00:22.491Z,16.23
2019-04-04T20:02:52.163Z,15.40
2019-04-04T20:05:22.445Z,17.17
2019-04-04T20:07:52.270Z,17.80
2019-04-04T20:10:21.764Z,15.10
2019-04-04T20:12:51.410Z,17.17
2019-04-04T20:15:21.115Z,15.67
2019-04-04T20:17:50.797Z,16.80
2019-04-04T20:20:20.607Z,17.43
2019-04-04T20:22:49.989Z,30.23
2019-04-04T20:25:19.903Z,25.87
2019-04-04T20:27:54.992Z,20.60
2019-04-04T20:30:24.558Z,32.27
2019-04-04T20:32:54.114Z,19.80
2019-04-04T20:35:26.720Z,15.40
2019-04-04T20:37:54.915Z,15.70
2019-04-04T20:40:24.405Z,18.03
2019-04-04T20:42:53.878Z,16.67
2019-04-04T20:45:23.463Z,16.07
2019-04-04T20:47:52.950Z,16.10
2019-04-04T20:50:22.341Z,14.63
2019-04-04T20:52:52.924Z,12.73
2019-04-04T20:55:23.076Z,11.67
2019-04-04T20:57:52.456Z,14.20
2019-04-04T21:00:22.053Z,12.40
2019-04-04T21:02:51.536Z,18.33
2019-04-04T21:05:21.366Z,14.23
2019-04-04T21:07:50.755Z,13.43
2019-04-04T21:10:20.222Z,13.47
2019-04-04T21:12:49.986Z,13.70
2019-04-04T21:15:19.788Z,15.67
2019-04-04T21:17:49.250Z,12.43
2019-04-04T21:20:18.626Z,15.47
2019-04-04T21:22:48.160Z,15.87
2019-04-04T21:25:17.642Z,15.67
2019-04-04T21:27:47.068Z,13.50
2019-04-04T21:30:16.968Z,13.03
2019-04-04T21:32:46.356Z,10.30
2019-04-04T21:35:16.004Z,12.57
2019-04-04T21:37:45.490Z,12.23
2019-04-04T21:40:15.286Z,13.07
2019-04-04T21:42:44.918Z,9.67
2019-04-04T21:45:15.506Z,10.83
2019-04-04T21:47:45.554Z,14.47
2019-04-04T21:50:15.407Z,13.37
2019-04-04T21:52:45.196Z,14.37
2019-04-04T21:55:14.807Z,13.90
2019-04-04T21:57:44.724Z,13.47
2019-04-04T22:00:14.856Z,13.13
2019-04-04T22:02:44.543Z,17.57
2019-04-04T22:05:14.373Z,12.83
2019-04-04T22:07:44.079Z,17.37
2019-04-04T22:10:13.712Z,13.37
2019-04-04T22:12:43.507Z,14.73
2019-04-04T22:15:13.576Z,12.60
2019-04-04T22:17:43.114Z,12.77
2019-04-04T22:20:12.924Z,13.47
2019-04-04T22:22:42.671Z,14.23
2019-04-04T22:25:12.711Z,13.37
2019-04-04T22:27:42.232Z,10.77
2019-04-04T22:30:13.277Z,15.37
2019-04-04T22:32:43.119Z,16.87
2019-04-04T22:35:12.725Z,15.03
2019-04-04T22:37:42.115Z,16.60
2019-04-04T22:40:11.518Z,18.07
2019-04-04T22:42:41.005Z,15.90
2019-04-04T22:45:10.950Z,15.87
2019-04-04T22:47:40.522Z,16.77
2019-04-04T22:50:10.290Z,16.87
2019-04-04T22:52:39.972Z,20.70
2019-04-04T22:55:09.706Z,15.00
2019-04-04T22:57:39.388Z,16.40
2019-04-04T23:00:10.701Z,16.67
2019-04-04T23:02:40.462Z,18.03
2019-04-04T23:05:10.436Z,18.00
2019-04-04T23:07:39.839Z,19.17
2019-04-04T23:10:09.867Z,18.17
2019-04-04T23:12:39.691Z,19.80
2019-04-04T23:15:09.918Z,18.13
2019-04-04T23:17:39.408Z,17.40
2019-04-04T23:20:09.421Z,16.87
2019-04-04T23:22:47.005Z,14.63
2019-04-04T23:25:10.493Z,16.70
2019-04-04T23:27:40.168Z,17.20
2019-04-04T23:30:10.317Z,16.63
2019-04-04T23:32:39.700Z,16.63
2019-04-04T23:35:09.093Z,14.77
2019-04-04T23:37:39.036Z,13.73
2019-04-04T23:40:08.997Z,16.90
2019-04-04T23:42:38.586Z,15.60
2019-04-04T23:45:08.548Z,17.60
2019-04-04T23:47:43.192Z,17.73
2019-04-04T23:50:09.797Z,16.73
2019-04-04T23:52:39.460Z,15.23
2019-04-04T23:55:09.119Z,17.67
2019-04-04T23:57:38.777Z,13.97
